TDCF/DCF METAR and TAF weather

Enter ICAO airport designator
Station Type Date Time Source
TDCF METAR 2018/12/15 21:00 UTC NOAA

TDCF 152100Z 10006KT 9999 FEW017 27/18 Q1017


Station Type Date Time Source
TDCF Decoded METAR 2018/12/15 21:00 UTC NOAA

Canefield Airport, Dominica (TDCF) 15-32N 061-24W 5M
Dec 15, 2018 - 04:00 PM EST / 2018.12.15 2100 UTC
Wind: from the E (100 degrees) at 7 MPH (6 KT):0
Visibility: greater than 7 mile(s):0
Sky conditions: mostly clear
Temperature: 80 F (27 C)
Dew Point: 64 F (18 C)
Relative Humidity: 57%
Pressure (altimeter): 30.03 in. Hg (1017 hPa)
ob: TDCF 152100Z 10006KT 9999 FEW017 27/18 Q1017
cycle: 21

Station Type Date Time Source
TDCF TAF 2012/05/01 18:15 UTC NOAA

TAF TDCF 011600Z 0118/0218 110010KT 9999 SCT018 BKN030
TEMPO 0118/0206 6000 SHRA BKN014 BKN070


Example: see airport list